createdAt,value
2022-12-22T00:01:48.048Z,2.53
2022-12-22T00:04:32.722Z,2.67
2022-12-22T00:07:17.948Z,2.80
2022-12-22T00:10:00.622Z,3.72
2022-12-22T00:12:44.206Z,2.72
2022-12-22T00:15:31.598Z,1.95
2022-12-22T00:18:14.430Z,1.88
2022-12-22T00:20:58.038Z,1.50
2022-12-22T00:23:43.196Z,1.10
2022-12-22T00:26:26.286Z,2.75
2022-12-22T00:29:08.936Z,2.58
2022-12-22T00:31:51.753Z,0.60
2022-12-22T00:34:37.851Z,1.05
2022-12-22T00:37:20.344Z,2.58
2022-12-22T00:40:06.251Z,0.60
2022-12-22T00:42:48.769Z,0.50
2022-12-22T00:45:31.755Z,0.55
2022-12-22T00:48:15.312Z,0.32
2022-12-22T00:50:57.916Z,0.50
2022-12-22T00:53:40.677Z,0.40
2022-12-22T00:56:26.946Z,0.40
2022-12-22T00:59:13.110Z,0.40
2022-12-22T01:01:55.831Z,0.60
2022-12-22T01:04:38.488Z,0.40
2022-12-22T01:07:21.721Z,0.43
2022-12-22T01:10:08.026Z,0.40
2022-12-22T01:12:55.973Z,0.52
2022-12-22T01:15:39.946Z,1.05
2022-12-22T01:18:23.238Z,0.40
2022-12-22T01:21:07.331Z,0.30
2022-12-22T01:23:50.200Z,0.50
2022-12-22T01:26:32.757Z,0.68
2022-12-22T01:29:17.941Z,0.47
2022-12-22T01:32:00.587Z,0.40
2022-12-22T01:34:43.183Z,0.60
2022-12-22T01:37:25.898Z,0.32
2022-12-22T01:40:08.459Z,0.45
2022-12-22T01:42:51.381Z,0.40
2022-12-22T01:45:42.966Z,0.30
2022-12-22T01:48:31.271Z,0.60
2022-12-22T01:51:20.052Z,0.43
2022-12-22T01:54:03.395Z,1.00
2022-12-22T01:56:47.481Z,0.55
2022-12-22T01:59:30.108Z,0.30
2022-12-22T02:02:21.612Z,0.82
2022-12-22T02:05:05.037Z,1.67
2022-12-22T02:08:11.141Z,0.50
2022-12-22T02:11:14.115Z,0.30
2022-12-22T02:14:14.745Z,0.30
2022-12-22T02:17:10.520Z,0.40
2022-12-22T02:20:42.130Z,1.52
2022-12-22T02:23:42.093Z,0.30
2022-12-22T02:26:43.976Z,0.73
2022-12-22T02:29:28.556Z,0.40
2022-12-22T02:32:11.926Z,1.70
2022-12-22T02:34:54.933Z,1.27
2022-12-22T02:37:47.368Z,0.38
2022-12-22T02:40:42.308Z,0.40
2022-12-22T02:43:42.971Z,0.90
2022-12-22T02:46:36.792Z,0.95
2022-12-22T02:49:31.431Z,0.60
2022-12-22T02:52:26.014Z,0.50
2022-12-22T02:55:08.777Z,0.50
2022-12-22T02:57:51.334Z,0.45
2022-12-22T03:00:39.828Z,0.55
2022-12-22T03:03:22.728Z,0.57
2022-12-22T03:06:05.407Z,0.30
2022-12-22T03:08:49.958Z,0.75
2022-12-22T03:11:32.486Z,0.93
2022-12-22T03:14:15.087Z,0.47
2022-12-22T03:17:00.153Z,0.40
2022-12-22T03:19:42.694Z,0.50
2022-12-22T03:22:25.193Z,0.40
2022-12-22T03:25:10.695Z,0.40
2022-12-22T03:27:40.795Z,0.30
2022-12-22T03:30:14.270Z,1.08
2022-12-22T03:32:46.940Z,0.50
2022-12-22T03:35:17.242Z,1.10
2022-12-22T03:37:47.296Z,0.30
2022-12-22T03:40:17.907Z,0.50
2022-12-22T03:43:00.514Z,0.45
2022-12-22T03:45:44.366Z,0.57
2022-12-22T03:48:21.033Z,0.40
2022-12-22T03:50:51.269Z,1.38
2022-12-22T03:53:21.415Z,0.50
2022-12-22T03:55:51.619Z,0.47
2022-12-22T03:58:21.655Z,0.35
2022-12-22T04:00:51.843Z,0.40
2022-12-22T04:03:24.643Z,0.50
2022-12-22T04:05:54.768Z,0.50
2022-12-22T04:08:24.823Z,0.60
2022-12-22T04:11:07.438Z,1.33
2022-12-22T04:13:37.516Z,0.95
2022-12-22T04:16:08.415Z,0.82
2022-12-22T04:18:44.157Z,0.38
2022-12-22T04:21:16.541Z,0.50
2022-12-22T04:23:51.305Z,0.82
2022-12-22T04:26:22.280Z,0.60
2022-12-22T04:28:55.944Z,0.40
2022-12-22T04:31:26.684Z,1.55
2022-12-22T04:33:59.382Z,0.40
2022-12-22T04:36:29.526Z,0.32
2022-12-22T04:38:59.663Z,0.30
2022-12-22T04:41:29.815Z,0.30
2022-12-22T04:43:59.923Z,1.48
2022-12-22T04:46:30.173Z,0.40
2022-12-22T04:49:02.949Z,1.02
2022-12-22T04:51:33.032Z,0.50
2022-12-22T04:54:03.106Z,1.30
2022-12-22T04:56:33.300Z,2.05
2022-12-22T04:59:03.356Z,0.52
2022-12-22T05:01:33.583Z,0.45
2022-12-22T05:04:06.509Z,0.50
2022-12-22T05:06:36.649Z,0.82
2022-12-22T05:09:07.198Z,1.38
2022-12-22T05:11:37.382Z,0.52
2022-12-22T05:14:07.699Z,2.08
2022-12-22T05:16:37.885Z,0.80
2022-12-22T05:19:10.747Z,1.65
2022-12-22T05:21:40.964Z,6.18
2022-12-22T05:24:12.464Z,5.95
2022-12-22T05:26:42.630Z,3.33
2022-12-22T05:29:12.732Z,3.97
2022-12-22T05:31:47.162Z,3.60
2022-12-22T05:34:22.699Z,2.20
2022-12-22T05:36:52.903Z,3.75
2022-12-22T05:39:23.029Z,1.58
2022-12-22T05:41:53.166Z,7.88
2022-12-22T05:44:23.266Z,4.50
2022-12-22T05:46:54.447Z,3.38
2022-12-22T05:49:27.267Z,2.72
2022-12-22T05:51:57.542Z,2.88
2022-12-22T05:54:27.637Z,1.25
2022-12-22T05:56:57.794Z,3.42
2022-12-22T05:59:27.826Z,4.72
2022-12-22T06:01:57.965Z,6.80
2022-12-22T06:04:33.959Z,5.65
2022-12-22T06:07:04.126Z,4.50
2022-12-22T06:09:37.268Z,2.45
2022-12-22T06:12:08.321Z,2.83
2022-12-22T06:14:40.681Z,1.63
2022-12-22T06:17:19.534Z,2.47
2022-12-22T06:19:52.178Z,1.65
2022-12-22T06:22:22.330Z,6.80
2022-12-22T06:24:52.385Z,7.32
2022-12-22T06:27:24.736Z,16.08
2022-12-22T06:29:55.038Z,7.45
2022-12-22T06:32:25.148Z,5.18
2022-12-22T06:34:57.858Z,3.75
2022-12-22T06:37:27.958Z,2.25
2022-12-22T06:39:58.151Z,2.72
2022-12-22T06:42:40.755Z,1.25
2022-12-22T06:45:15.358Z,2.63
2022-12-22T06:47:45.477Z,3.45
2022-12-22T06:50:18.378Z,4.53
2022-12-22T06:52:48.548Z,3.20
2022-12-22T06:55:18.954Z,4.32
2022-12-22T06:57:49.161Z,3.90
2022-12-22T07:00:20.379Z,2.53
2022-12-22T07:02:50.621Z,5.45
2022-12-22T07:05:23.885Z,2.50
2022-12-22T07:07:54.125Z,2.13
2022-12-22T07:10:44.334Z,3.20
2022-12-22T07:13:24.664Z,2.53
2022-12-22T07:16:00.650Z,2.20
2022-12-22T07:18:33.928Z,3.83
2022-12-22T07:21:12.769Z,1.80
2022-12-22T07:23:44.180Z,1.17
2022-12-22T07:26:16.323Z,2.15
2022-12-22T07:28:47.618Z,2.58
2022-12-22T07:31:20.920Z,1.58
2022-12-22T07:33:51.133Z,1.40
2022-12-22T07:36:23.946Z,2.60
2022-12-22T07:38:55.288Z,1.98
2022-12-22T07:41:37.877Z,2.85
2022-12-22T07:44:08.794Z,4.00
2022-12-22T07:46:42.349Z,3.55
2022-12-22T07:49:27.309Z,2.92
2022-12-22T07:52:00.741Z,1.80
2022-12-22T07:54:35.237Z,2.40
2022-12-22T07:57:08.283Z,2.50
2022-12-22T07:59:41.168Z,1.48
2022-12-22T08:02:19.496Z,3.88
2022-12-22T08:04:49.754Z,3.05
2022-12-22T08:07:22.447Z,3.92
2022-12-22T08:09:52.505Z,3.40
2022-12-22T08:12:22.666Z,5.03
2022-12-22T08:14:53.105Z,3.47
2022-12-22T08:17:32.274Z,3.78
2022-12-22T08:20:02.518Z,3.65
2022-12-22T08:22:35.269Z,4.70
2022-12-22T08:25:05.531Z,3.15
2022-12-22T08:27:47.456Z,3.22
2022-12-22T08:30:18.308Z,4.35
2022-12-22T08:32:53.374Z,4.65
2022-12-22T08:35:26.220Z,3.97
2022-12-22T08:38:01.105Z,8.95
2022-12-22T08:40:34.922Z,5.90
2022-12-22T08:43:14.761Z,5.13
2022-12-22T08:45:48.154Z,4.63
2022-12-22T08:48:18.267Z,8.07
2022-12-22T08:50:48.405Z,4.38
2022-12-22T08:53:53.924Z,6.20
2022-12-22T08:56:11.686Z,5.13
2022-12-22T08:58:42.094Z,6.13
2022-12-22T09:01:20.426Z,6.97
2022-12-22T09:03:54.164Z,7.63
2022-12-22T09:06:28.427Z,8.98
2022-12-22T09:09:06.243Z,8.85
2022-12-22T09:11:37.432Z,11.68
2022-12-22T09:14:08.578Z,12.35
2022-12-22T09:16:42.973Z,14.02
2022-12-22T09:19:13.765Z,15.75
2022-12-22T09:21:45.530Z,16.20
2022-12-22T09:24:19.793Z,17.33
2022-12-22T09:26:50.215Z,18.98
2022-12-22T09:29:20.491Z,21.93
2022-12-22T09:31:50.659Z,22.55
2022-12-22T09:34:20.778Z,22.00
2022-12-22T09:36:51.751Z,21.77
2022-12-22T09:39:29.108Z,20.83
2022-12-22T09:42:02.027Z,23.53
2022-12-22T09:44:39.336Z,24.00
2022-12-22T09:47:24.049Z,21.63
2022-12-22T09:50:01.362Z,21.45
2022-12-22T09:52:49.192Z,22.38
2022-12-22T09:55:42.792Z,21.13
2022-12-22T09:58:26.693Z,22.05
2022-12-22T10:01:12.562Z,22.38
2022-12-22T10:03:59.898Z,17.77
2022-12-22T10:06:45.787Z,21.38
2022-12-22T10:09:48.728Z,21.63
2022-12-22T10:12:23.495Z,19.77
2022-12-22T10:14:57.042Z,17.35
2022-12-22T10:17:32.370Z,16.02
2022-12-22T10:20:28.149Z,17.27
2022-12-22T10:23:01.949Z,16.30
2022-12-22T10:26:26.951Z,16.60
2022-12-22T10:28:36.568Z,16.83
2022-12-22T10:31:25.335Z,14.48
2022-12-22T10:33:58.844Z,13.70
2022-12-22T10:36:33.311Z,12.80
2022-12-22T10:39:08.049Z,13.75
2022-12-22T10:41:43.463Z,13.77
2022-12-22T10:44:28.550Z,13.85
2022-12-22T10:47:01.500Z,14.88
2022-12-22T10:52:29.121Z,12.68
2022-12-22T10:55:19.389Z,12.10
2022-12-22T10:57:49.668Z,13.05
2022-12-22T11:00:32.448Z,12.90
2022-12-22T11:03:05.139Z,15.15
2022-12-22T11:05:36.715Z,14.55
2022-12-22T11:08:21.137Z,13.65
2022-12-22T11:10:57.929Z,13.73
2022-12-22T11:13:54.369Z,13.38
2022-12-22T11:16:38.054Z,14.73
2022-12-22T11:19:32.654Z,15.00
2022-12-22T11:22:15.915Z,10.95
2022-12-22T11:25:06.268Z,9.68
2022-12-22T11:27:46.696Z,11.77
2022-12-22T11:30:22.744Z,15.68
2022-12-22T11:33:35.812Z,9.52
2022-12-22T11:36:14.092Z,10.00
2022-12-22T11:39:02.761Z,8.82
2022-12-22T11:41:51.747Z,8.68
2022-12-22T11:44:42.675Z,8.68
2022-12-22T11:47:28.461Z,9.48
2022-12-22T11:50:59.389Z,10.73
2022-12-22T11:54:10.826Z,9.88
2022-12-22T11:56:45.533Z,9.90
2022-12-22T11:59:40.903Z,10.55
2022-12-22T12:02:58.469Z,9.77
2022-12-22T12:06:18.598Z,10.23
2022-12-22T12:09:14.444Z,11.38
2022-12-22T12:11:53.293Z,11.50
2022-12-22T12:14:32.296Z,10.18
2022-12-22T12:17:10.891Z,11.68
2022-12-22T12:20:10.135Z,12.82
2022-12-22T12:23:07.257Z,8.88
2022-12-22T12:25:46.898Z,9.35
2022-12-22T12:28:33.832Z,8.75
2022-12-22T12:31:12.308Z,11.23
2022-12-22T12:33:49.287Z,7.80
2022-12-22T12:36:29.777Z,10.00
2022-12-22T12:39:14.936Z,7.65
2022-12-22T12:42:11.546Z,7.30
2022-12-22T12:44:43.399Z,7.10
2022-12-22T12:47:33.744Z,6.40
2022-12-22T12:50:35.258Z,8.63
2022-12-22T12:53:13.353Z,5.93
2022-12-22T12:56:12.359Z,7.75
2022-12-22T12:59:03.938Z,7.70
2022-12-22T13:02:02.821Z,7.55
2022-12-22T13:05:29.817Z,7.35
2022-12-22T13:08:29.449Z,6.85
2022-12-22T13:14:58.538Z,6.60
2022-12-22T13:17:50.673Z,8.00
2022-12-22T13:20:31.310Z,6.32
2022-12-22T13:23:05.177Z,7.38
2022-12-22T13:25:48.144Z,7.85
2022-12-22T13:28:24.535Z,8.07
2022-12-22T13:31:02.639Z,8.25
2022-12-22T13:33:40.050Z,7.20
2022-12-22T13:36:21.578Z,8.70
2022-12-22T13:39:03.412Z,9.07
2022-12-22T13:41:36.987Z,6.93
2022-12-22T13:44:16.664Z,8.77
2022-12-22T13:46:47.204Z,6.65
2022-12-22T13:49:51.550Z,7.10
2022-12-22T13:52:19.250Z,8.60
2022-12-22T13:54:52.679Z,8.60
2022-12-22T13:57:25.983Z,6.20
2022-12-22T13:59:58.861Z,6.05
2022-12-22T14:02:36.384Z,7.93
2022-12-22T14:05:10.982Z,5.88
2022-12-22T14:07:43.477Z,5.47
2022-12-22T14:10:14.161Z,5.60
2022-12-22T14:12:53.479Z,5.40
2022-12-22T14:15:26.273Z,5.45
2022-12-22T14:17:56.550Z,4.78
2022-12-22T14:20:32.354Z,2.45
2022-12-22T14:23:10.868Z,2.40
2022-12-22T14:25:44.314Z,2.42
2022-12-22T14:28:24.250Z,4.72
2022-12-22T14:31:03.077Z,2.20
2022-12-22T14:33:37.231Z,2.13
2022-12-22T14:36:21.726Z,2.17
2022-12-22T14:38:54.429Z,4.18
2022-12-22T14:41:46.825Z,3.38
2022-12-22T14:44:23.688Z,4.05
2022-12-22T14:47:20.145Z,6.25
2022-12-22T14:49:54.301Z,11.85
2022-12-22T14:52:39.804Z,16.95
2022-12-22T14:55:28.731Z,14.23
2022-12-22T14:58:04.835Z,23.40
2022-12-22T15:00:39.457Z,14.10
2022-12-22T15:03:36.655Z,15.50
2022-12-22T15:06:35.162Z,9.77
2022-12-22T15:10:13.634Z,8.45
2022-12-22T15:12:28.955Z,7.68
2022-12-22T15:14:59.055Z,9.27
2022-12-22T15:17:29.191Z,13.35
2022-12-22T15:20:02.890Z,13.85
2022-12-22T15:22:33.067Z,15.13
2022-12-22T15:25:03.198Z,9.88
2022-12-22T15:27:33.319Z,17.13
2022-12-22T15:30:03.402Z,22.10
2022-12-22T15:32:37.816Z,21.10
2022-12-22T15:35:23.578Z,16.05
2022-12-22T15:37:53.678Z,20.50
2022-12-22T15:40:27.080Z,15.15
2022-12-22T15:42:57.392Z,18.80
2022-12-22T15:45:27.572Z,18.05
2022-12-22T15:48:00.885Z,13.82
2022-12-22T15:50:39.415Z,17.58
2022-12-22T15:53:17.267Z,13.40
2022-12-22T15:55:52.106Z,12.60
2022-12-22T15:58:27.293Z,8.02
2022-12-22T16:00:57.570Z,16.67
2022-12-22T16:03:27.849Z,14.52
2022-12-22T16:06:00.843Z,7.07
2022-12-22T16:08:38.965Z,6.22
2022-12-22T16:11:11.512Z,3.35
2022-12-22T16:13:42.220Z,7.40
2022-12-22T16:16:12.473Z,8.98
2022-12-22T16:18:42.730Z,8.80
2022-12-22T16:21:22.915Z,6.88
2022-12-22T16:23:55.618Z,7.25
2022-12-22T16:26:26.049Z,4.82
2022-12-22T16:28:58.322Z,3.25
2022-12-22T16:31:29.860Z,4.03
2022-12-22T16:33:59.987Z,2.03
2022-12-22T16:36:32.682Z,1.35
2022-12-22T16:39:02.749Z,1.80
2022-12-22T16:41:32.920Z,2.15
2022-12-22T16:44:05.970Z,2.92
2022-12-22T16:46:40.659Z,5.90
2022-12-22T16:49:12.120Z,2.30
2022-12-22T16:51:52.023Z,3.25
2022-12-22T16:54:22.398Z,2.10
2022-12-22T16:56:53.299Z,4.70
2022-12-22T16:59:23.423Z,2.30
2022-12-22T17:01:57.724Z,3.53
2022-12-22T17:04:32.734Z,2.47
2022-12-22T17:07:05.883Z,2.17
2022-12-22T17:09:47.793Z,2.63
2022-12-22T17:12:22.677Z,2.90
2022-12-22T17:14:54.410Z,2.47
2022-12-22T17:17:31.899Z,4.20
2022-12-22T17:20:04.353Z,3.50
2022-12-22T17:22:37.351Z,5.90
2022-12-22T17:25:10.667Z,3.53
2022-12-22T17:27:40.816Z,3.60
2022-12-22T17:30:19.935Z,6.15
2022-12-22T17:33:00.622Z,3.17
2022-12-22T17:35:34.671Z,8.27
2022-12-22T17:38:08.437Z,3.55
2022-12-22T17:40:39.603Z,5.55
2022-12-22T17:43:09.811Z,6.13
2022-12-22T17:45:39.983Z,4.97
2022-12-22T17:48:11.462Z,4.07
2022-12-22T17:50:43.814Z,4.53
2022-12-22T17:53:22.393Z,5.57
2022-12-22T17:56:09.302Z,4.28
2022-12-22T17:58:39.594Z,5.70
2022-12-22T18:01:13.525Z,8.45
2022-12-22T18:03:43.880Z,6.97
2022-12-22T18:06:17.981Z,5.32
2022-12-22T18:08:51.927Z,7.15
2022-12-22T18:11:22.615Z,6.90
2022-12-22T18:13:54.692Z,8.13
2022-12-22T18:16:25.237Z,8.02
2022-12-22T18:18:55.513Z,9.07
2022-12-22T18:21:27.985Z,9.73
2022-12-22T18:24:00.766Z,8.27
2022-12-22T18:26:33.845Z,11.88
2022-12-22T18:29:04.665Z,8.20
2022-12-22T18:31:34.909Z,7.22
2022-12-22T18:34:05.097Z,5.97
2022-12-22T18:36:37.310Z,6.43
2022-12-22T18:39:18.886Z,9.40
2022-12-22T18:41:50.079Z,7.30
2022-12-22T18:44:21.096Z,4.35
2022-12-22T18:46:51.609Z,7.93
2022-12-22T18:49:21.800Z,6.00
2022-12-22T18:51:52.052Z,5.35
2022-12-22T18:54:36.453Z,5.60
2022-12-22T18:57:08.635Z,7.65
2022-12-22T18:59:38.811Z,5.35
2022-12-22T19:02:24.644Z,5.85
2022-12-22T19:04:56.273Z,7.75
2022-12-22T19:07:30.589Z,6.13
2022-12-22T19:10:03.290Z,4.78
2022-12-22T19:12:33.475Z,6.18
2022-12-22T19:15:09.828Z,6.07
2022-12-22T19:17:40.022Z,7.68
2022-12-22T19:20:18.300Z,9.00
2022-12-22T19:22:51.000Z,7.38
2022-12-22T19:25:30.078Z,7.95
2022-12-22T19:28:08.621Z,6.13
2022-12-22T19:30:38.792Z,6.05
2022-12-22T19:33:18.600Z,8.35
2022-12-22T19:35:48.743Z,8.73
2022-12-22T19:38:25.580Z,8.15
2022-12-22T19:41:04.561Z,7.72
2022-12-22T19:43:35.216Z,7.65
2022-12-22T19:46:07.573Z,8.27
2022-12-22T19:48:37.826Z,11.45
2022-12-22T19:51:13.129Z,8.82
2022-12-22T19:53:46.165Z,8.43
2022-12-22T19:56:26.697Z,9.85
2022-12-22T19:58:59.113Z,9.73
2022-12-22T20:01:29.585Z,7.10
2022-12-22T20:03:59.839Z,14.00
2022-12-22T20:06:30.285Z,10.93
2022-12-22T20:09:03.259Z,11.00
2022-12-22T20:11:36.665Z,12.63
2022-12-22T20:14:06.875Z,13.05
2022-12-22T20:16:37.044Z,12.82
2022-12-22T20:19:08.452Z,11.40
2022-12-22T20:21:38.729Z,12.52
2022-12-22T20:24:10.927Z,16.67
2022-12-22T20:26:48.595Z,19.67
2022-12-22T20:29:22.095Z,14.73
2022-12-22T20:31:52.288Z,17.92
2022-12-22T20:34:22.647Z,18.25
2022-12-22T20:36:52.850Z,18.38
2022-12-22T20:39:22.959Z,19.05
2022-12-22T20:41:55.627Z,19.70
2022-12-22T20:44:28.039Z,20.98
2022-12-22T20:46:58.247Z,19.90
2022-12-22T20:49:28.490Z,20.30
2022-12-22T20:52:01.316Z,19.80
2022-12-22T20:54:31.504Z,19.55
2022-12-22T20:57:04.228Z,11.82
2022-12-22T20:59:35.777Z,11.57
2022-12-22T21:02:08.573Z,15.25
2022-12-22T21:04:39.372Z,25.33
2022-12-22T21:07:09.432Z,24.23
2022-12-22T21:09:39.592Z,18.20
2022-12-22T21:12:14.936Z,16.58
2022-12-22T21:14:45.027Z,23.70
2022-12-22T21:17:19.774Z,21.27
2022-12-22T21:19:50.512Z,22.67
2022-12-22T21:22:20.699Z,14.25
2022-12-22T21:24:50.796Z,16.08
2022-12-22T21:27:25.006Z,19.13
2022-12-22T21:29:55.095Z,15.75
2022-12-22T21:32:27.575Z,18.25
2022-12-22T21:35:05.866Z,17.83
2022-12-22T21:37:38.546Z,17.85
2022-12-22T21:40:24.853Z,17.27
2022-12-22T21:43:00.503Z,13.52
2022-12-22T21:45:39.572Z,25.38
2022-12-22T21:48:16.456Z,18.90
2022-12-22T21:50:46.816Z,11.40
2022-12-22T21:53:22.146Z,7.88
2022-12-22T21:55:53.279Z,7.03
2022-12-22T21:58:26.084Z,7.25
2022-12-22T22:00:56.194Z,11.95
2022-12-22T22:03:27.163Z,12.35
2022-12-22T22:05:58.053Z,11.35
2022-12-22T22:08:28.219Z,7.55
2022-12-22T22:10:58.508Z,12.38
2022-12-22T22:13:31.285Z,23.25
2022-12-22T22:16:04.359Z,12.13
2022-12-22T22:18:35.232Z,10.80
2022-12-22T22:21:05.432Z,7.53
2022-12-22T22:23:35.622Z,7.43
2022-12-22T22:26:08.593Z,22.67
2022-12-22T22:28:41.329Z,11.15
2022-12-22T22:31:15.221Z,6.55
2022-12-22T22:33:45.382Z,8.23
2022-12-22T22:36:16.681Z,8.70
2022-12-22T22:38:47.027Z,12.15
2022-12-22T22:41:17.111Z,19.73
2022-12-22T22:43:49.772Z,20.88
2022-12-22T22:46:19.948Z,20.80
2022-12-22T22:48:51.192Z,10.15
2022-12-22T22:51:21.347Z,11.32
2022-12-22T22:53:51.459Z,10.10
2022-12-22T22:56:21.578Z,13.95
2022-12-22T22:58:54.287Z,13.20
2022-12-22T23:01:24.515Z,14.15
2022-12-22T23:03:54.821Z,9.52
2022-12-22T23:06:25.075Z,10.70
2022-12-22T23:08:55.225Z,7.30
2022-12-22T23:11:25.417Z,8.63
2022-12-22T23:13:59.676Z,5.60
2022-12-22T23:16:37.378Z,6.18
2022-12-22T23:19:08.460Z,7.53
2022-12-22T23:21:38.883Z,7.95
2022-12-22T23:24:10.157Z,7.72
2022-12-22T23:26:41.997Z,7.35
2022-12-22T23:29:14.919Z,8.32
2022-12-22T23:31:45.123Z,5.70
2022-12-22T23:34:15.914Z,6.40
2022-12-22T23:36:46.067Z,9.13
2022-12-22T23:39:16.572Z,6.95
2022-12-22T23:41:46.780Z,8.52
2022-12-22T23:44:19.626Z,7.15
2022-12-22T23:46:49.918Z,8.93
2022-12-22T23:49:20.007Z,5.60
2022-12-22T23:51:50.093Z,5.40
2022-12-22T23:54:20.238Z,5.82
2022-12-22T23:56:50.361Z,6.47
2022-12-22T23:59:23.364Z,5.93
